sensor_id;sensor_type;location;lat;lon;timestamp;temperature;humidity
34572;DHT22;20808;48.974;8.452;2022-10-17T00:00:39;14.30;99.90
34572;DHT22;20808;48.974;8.452;2022-10-17T00:03:06;14.30;99.90
34572;DHT22;20808;48.974;8.452;2022-10-17T00:05:33;14.20;99.90
34572;DHT22;20808;48.974;8.452;2022-10-17T00:08:00;14.20;99.90
34572;DHT22;20808;48.974;8.452;2022-10-17T00:10:26;14.00;99.90
34572;DHT22;20808;48.974;8.452;2022-10-17T00:12:53;13.90;99.90
34572;DHT22;20808;48.974;8.452;2022-10-17T00:15:20;13.90;99.90
34572;DHT22;20808;48.974;8.452;2022-10-17T00:17:49;13.60;99.90
34572;DHT22;20808;48.974;8.452;2022-10-17T00:20:16;13.50;99.90
34572;DHT22;20808;48.974;8.452;2022-10-17T00:22:43;13.40;99.90
34572;DHT22;20808;48.974;8.452;2022-10-17T00:25:10;13.60;99.90
34572;DHT22;20808;48.974;8.452;2022-10-17T00:27:39;13.80;99.90
34572;DHT22;20808;48.974;8.452;2022-10-17T00:30:09;14.00;99.90
34572;DHT22;20808;48.974;8.452;2022-10-17T00:32:37;14.00;99.90
34572;DHT22;20808;48.974;8.452;2022-10-17T00:35:06;14.20;99.90
34572;DHT22;20808;48.974;8.452;2022-10-17T00:37:33;14.20;99.90
34572;DHT22;20808;48.974;8.452;2022-10-17T00:40:00;14.30;99.90
34572;DHT22;20808;48.974;8.452;2022-10-17T00:42:27;14.30;99.90
34572;DHT22;20808;48.974;8.452;2022-10-17T00:45:00;14.30;99.90
34572;DHT22;20808;48.974;8.452;2022-10-17T00:47:28;14.20;99.90
34572;DHT22;20808;48.974;8.452;2022-10-17T00:49:56;14.20;99.90
34572;DHT22;20808;48.974;8.452;2022-10-17T00:52:26;14.20;99.90
34572;DHT22;20808;48.974;8.452;2022-10-17T00:54:57;14.10;99.90
34572;DHT22;20808;48.974;8.452;2022-10-17T00:57:26;14.00;99.90
34572;DHT22;20808;48.974;8.452;2022-10-17T00:59:56;14.00;99.90
34572;DHT22;20808;48.974;8.452;2022-10-17T01:02:25;14.00;99.90
34572;DHT22;20808;48.974;8.452;2022-10-17T01:04:52;13.90;99.90
34572;DHT22;20808;48.974;8.452;2022-10-17T01:07:25;13.90;99.90
34572;DHT22;20808;48.974;8.452;2022-10-17T01:09:53;13.80;99.90
34572;DHT22;20808;48.974;8.452;2022-10-17T01:12:23;13.70;99.90
34572;DHT22;20808;48.974;8.452;2022-10-17T01:15:01;13.70;99.90
34572;DHT22;20808;48.974;8.452;2022-10-17T01:17:34;13.70;99.90
34572;DHT22;20808;48.974;8.452;2022-10-17T01:23:23;13.80;99.90
34572;DHT22;20808;48.974;8.452;2022-10-17T01:25:55;13.80;99.90
34572;DHT22;20808;48.974;8.452;2022-10-17T01:28:38;13.70;99.90
34572;DHT22;20808;48.974;8.452;2022-10-17T01:31:14;13.60;99.90
34572;DHT22;20808;48.974;8.452;2022-10-17T01:33:46;13.50;99.90
34572;DHT22;20808;48.974;8.452;2022-10-17T01:36:23;13.50;99.90
34572;DHT22;20808;48.974;8.452;2022-10-17T01:38:57;13.60;99.90
34572;DHT22;20808;48.974;8.452;2022-10-17T01:41:33;13.60;99.90
34572;DHT22;20808;48.974;8.452;2022-10-17T01:44:04;13.60;99.90
34572;DHT22;20808;48.974;8.452;2022-10-17T01:46:37;13.70;99.90
34572;DHT22;20808;48.974;8.452;2022-10-17T01:49:07;13.80;99.90
34572;DHT22;20808;48.974;8.452;2022-10-17T01:51:37;13.80;99.90
34572;DHT22;20808;48.974;8.452;2022-10-17T01:54:09;13.80;99.90
34572;DHT22;20808;48.974;8.452;2022-10-17T01:56:37;13.80;99.90
34572;DHT22;20808;48.974;8.452;2022-10-17T01:59:09;13.80;99.90
34572;DHT22;20808;48.974;8.452;2022-10-17T02:01:40;13.80;99.90
34572;DHT22;20808;48.974;8.452;2022-10-17T02:04:09;13.90;99.90
34572;DHT22;20808;48.974;8.452;2022-10-17T02:06:37;14.00;99.90
34572;DHT22;20808;48.974;8.452;2022-10-17T02:09:16;14.20;99.90
34572;DHT22;20808;48.974;8.452;2022-10-17T02:11:52;14.30;99.90
34572;DHT22;20808;48.974;8.452;2022-10-17T02:14:25;14.20;99.90
34572;DHT22;20808;48.974;8.452;2022-10-17T02:17:07;14.20;99.90
34572;DHT22;20808;48.974;8.452;2022-10-17T02:19:57;14.20;99.90
34572;DHT22;20808;48.974;8.452;2022-10-17T02:22:37;14.20;99.90
34572;DHT22;20808;48.974;8.452;2022-10-17T02:25:10;14.20;99.90
34572;DHT22;20808;48.974;8.452;2022-10-17T02:27:43;14.10;99.90
34572;DHT22;20808;48.974;8.452;2022-10-17T02:30:16;14.00;99.90
34572;DHT22;20808;48.974;8.452;2022-10-17T02:32:51;14.10;99.90
34572;DHT22;20808;48.974;8.452;2022-10-17T02:35:19;14.00;99.90
34572;DHT22;20808;48.974;8.452;2022-10-17T02:37:46;13.90;99.90
34572;DHT22;20808;48.974;8.452;2022-10-17T02:40:16;13.80;99.90
34572;DHT22;20808;48.974;8.452;2022-10-17T02:42:44;13.70;99.90
34572;DHT22;20808;48.974;8.452;2022-10-17T02:45:12;13.60;99.90
34572;DHT22;20808;48.974;8.452;2022-10-17T02:47:49;13.50;99.90
34572;DHT22;20808;48.974;8.452;2022-10-17T02:50:26;13.50;99.90
34572;DHT22;20808;48.974;8.452;2022-10-17T02:52:59;13.50;99.90
34572;DHT22;20808;48.974;8.452;2022-10-17T02:55:29;13.40;99.90
34572;DHT22;20808;48.974;8.452;2022-10-17T02:57:59;13.40;99.90
34572;DHT22;20808;48.974;8.452;2022-10-17T03:00:28;13.40;99.90
34572;DHT22;20808;48.974;8.452;2022-10-17T03:02:57;13.40;99.90
34572;DHT22;20808;48.974;8.452;2022-10-17T03:05:26;13.30;99.90
34572;DHT22;20808;48.974;8.452;2022-10-17T03:07:54;13.30;99.90
34572;DHT22;20808;48.974;8.452;2022-10-17T03:10:21;13.30;99.90
34572;DHT22;20808;48.974;8.452;2022-10-17T03:12:48;13.20;99.90
34572;DHT22;20808;48.974;8.452;2022-10-17T03:15:15;13.20;99.90
34572;DHT22;20808;48.974;8.452;2022-10-17T03:17:42;13.20;99.90
34572;DHT22;20808;48.974;8.452;2022-10-17T03:20:10;13.20;99.90
34572;DHT22;20808;48.974;8.452;2022-10-17T03:22:37;13.40;99.90
34572;DHT22;20808;48.974;8.452;2022-10-17T03:25:04;13.50;99.90
34572;DHT22;20808;48.974;8.452;2022-10-17T03:27:31;13.70;99.90
34572;DHT22;20808;48.974;8.452;2022-10-17T03:29:58;13.80;99.90
34572;DHT22;20808;48.974;8.452;2022-10-17T03:32:24;13.70;99.90
34572;DHT22;20808;48.974;8.452;2022-10-17T03:34:51;13.60;99.90
34572;DHT22;20808;48.974;8.452;2022-10-17T03:37:19;13.60;99.90
34572;DHT22;20808;48.974;8.452;2022-10-17T03:39:46;13.60;99.90
34572;DHT22;20808;48.974;8.452;2022-10-17T03:42:13;13.50;99.90
34572;DHT22;20808;48.974;8.452;2022-10-17T03:44:39;13.40;99.90
34572;DHT22;20808;48.974;8.452;2022-10-17T03:47:06;13.40;99.90
34572;DHT22;20808;48.974;8.452;2022-10-17T03:49:33;13.30;99.90
34572;DHT22;20808;48.974;8.452;2022-10-17T03:52:00;13.20;99.90
34572;DHT22;20808;48.974;8.452;2022-10-17T03:54:28;13.20;99.90
34572;DHT22;20808;48.974;8.452;2022-10-17T03:56:55;13.10;99.90
34572;DHT22;20808;48.974;8.452;2022-10-17T03:59:22;13.10;99.90
34572;DHT22;20808;48.974;8.452;2022-10-17T04:01:48;13.10;99.90
34572;DHT22;20808;48.974;8.452;2022-10-17T04:04:15;13.10;99.90
34572;DHT22;20808;48.974;8.452;2022-10-17T04:06:42;13.10;99.90
34572;DHT22;20808;48.974;8.452;2022-10-17T04:09:09;13.10;99.90
34572;DHT22;20808;48.974;8.452;2022-10-17T04:11:37;13.10;99.90
34572;DHT22;20808;48.974;8.452;2022-10-17T04:14:04;13.00;99.90
34572;DHT22;20808;48.974;8.452;2022-10-17T04:16:31;13.00;99.90
34572;DHT22;20808;48.974;8.452;2022-10-17T04:18:59;13.00;99.90
34572;DHT22;20808;48.974;8.452;2022-10-17T04:21:27;13.00;99.90
34572;DHT22;20808;48.974;8.452;2022-10-17T04:23:55;13.00;99.90
34572;DHT22;20808;48.974;8.452;2022-10-17T04:26:22;13.00;99.90
34572;DHT22;20808;48.974;8.452;2022-10-17T04:28:51;12.90;99.90
34572;DHT22;20808;48.974;8.452;2022-10-17T04:31:18;13.00;99.90
34572;DHT22;20808;48.974;8.452;2022-10-17T04:33:46;13.00;99.90
34572;DHT22;20808;48.974;8.452;2022-10-17T04:36:15;13.00;99.90
34572;DHT22;20808;48.974;8.452;2022-10-17T04:38:42;13.00;99.90
34572;DHT22;20808;48.974;8.452;2022-10-17T04:41:11;12.90;99.90
34572;DHT22;20808;48.974;8.452;2022-10-17T04:43:39;12.90;99.90
34572;DHT22;20808;48.974;8.452;2022-10-17T04:46:09;12.80;99.90
34572;DHT22;20808;48.974;8.452;2022-10-17T04:48:36;12.70;99.90
34572;DHT22;20808;48.974;8.452;2022-10-17T04:51:06;12.40;99.90
34572;DHT22;20808;48.974;8.452;2022-10-17T04:53:34;12.20;99.90
34572;DHT22;20808;48.974;8.452;2022-10-17T04:56:06;12.10;99.90
34572;DHT22;20808;48.974;8.452;2022-10-17T04:58:33;12.00;99.90
34572;DHT22;20808;48.974;8.452;2022-10-17T05:01:04;11.90;99.90
34572;DHT22;20808;48.974;8.452;2022-10-17T05:03:32;12.00;99.90
34572;DHT22;20808;48.974;8.452;2022-10-17T05:06:03;11.90;99.90
34572;DHT22;20808;48.974;8.452;2022-10-17T05:08:29;11.80;99.90
34572;DHT22;20808;48.974;8.452;2022-10-17T05:10:56;11.80;99.90
34572;DHT22;20808;48.974;8.452;2022-10-17T05:13:23;11.80;99.90
34572;DHT22;20808;48.974;8.452;2022-10-17T05:15:50;11.60;99.90
34572;DHT22;20808;48.974;8.452;2022-10-17T05:18:16;11.50;99.90
34572;DHT22;20808;48.974;8.452;2022-10-17T05:20:45;11.60;99.90
34572;DHT22;20808;48.974;8.452;2022-10-17T05:23:11;11.50;99.90
34572;DHT22;20808;48.974;8.452;2022-10-17T05:25:38;11.50;99.90
34572;DHT22;20808;48.974;8.452;2022-10-17T05:28:05;11.60;99.90
34572;DHT22;20808;48.974;8.452;2022-10-17T05:30:32;11.60;99.90
34572;DHT22;20808;48.974;8.452;2022-10-17T05:32:59;11.70;99.90
34572;DHT22;20808;48.974;8.452;2022-10-17T05:35:26;11.90;99.90
34572;DHT22;20808;48.974;8.452;2022-10-17T05:37:54;12.20;99.90
34572;DHT22;20808;48.974;8.452;2022-10-17T05:40:21;12.40;99.90
34572;DHT22;20808;48.974;8.452;2022-10-17T05:42:48;12.60;99.90
34572;DHT22;20808;48.974;8.452;2022-10-17T05:45:15;12.60;99.90
34572;DHT22;20808;48.974;8.452;2022-10-17T05:47:42;12.70;99.90
34572;DHT22;20808;48.974;8.452;2022-10-17T05:50:09;12.70;99.90
34572;DHT22;20808;48.974;8.452;2022-10-17T05:52:36;12.80;99.90
34572;DHT22;20808;48.974;8.452;2022-10-17T05:55:05;12.80;99.90
34572;DHT22;20808;48.974;8.452;2022-10-17T05:57:32;12.90;99.90
34572;DHT22;20808;48.974;8.452;2022-10-17T05:59:59;12.90;99.90
34572;DHT22;20808;48.974;8.452;2022-10-17T06:02:26;12.90;99.90
34572;DHT22;20808;48.974;8.452;2022-10-17T06:04:52;12.90;99.90
34572;DHT22;20808;48.974;8.452;2022-10-17T06:07:19;12.90;99.90
34572;DHT22;20808;48.974;8.452;2022-10-17T06:09:46;12.90;99.90
34572;DHT22;20808;48.974;8.452;2022-10-17T06:12:14;12.90;99.90
34572;DHT22;20808;48.974;8.452;2022-10-17T06:14:41;12.80;99.90
34572;DHT22;20808;48.974;8.452;2022-10-17T06:17:07;12.70;99.90
34572;DHT22;20808;48.974;8.452;2022-10-17T06:19:34;12.70;99.90
34572;DHT22;20808;48.974;8.452;2022-10-17T06:22:01;12.70;99.90
34572;DHT22;20808;48.974;8.452;2022-10-17T06:24:28;12.70;99.90
34572;DHT22;20808;48.974;8.452;2022-10-17T06:26:55;12.60;99.90
34572;DHT22;20808;48.974;8.452;2022-10-17T06:29:23;12.70;99.90
34572;DHT22;20808;48.974;8.452;2022-10-17T06:31:50;12.80;99.90
34572;DHT22;20808;48.974;8.452;2022-10-17T06:34:17;12.80;99.90
34572;DHT22;20808;48.974;8.452;2022-10-17T06:36:44;12.90;99.90
34572;DHT22;20808;48.974;8.452;2022-10-17T06:39:11;13.00;99.90
34572;DHT22;20808;48.974;8.452;2022-10-17T06:41:38;13.10;99.90
34572;DHT22;20808;48.974;8.452;2022-10-17T06:44:05;13.10;99.90
34572;DHT22;20808;48.974;8.452;2022-10-17T06:46:37;13.20;99.90
34572;DHT22;20808;48.974;8.452;2022-10-17T06:49:04;13.30;99.90
34572;DHT22;20808;48.974;8.452;2022-10-17T06:51:33;13.30;99.90
34572;DHT22;20808;48.974;8.452;2022-10-17T06:54:00;13.30;99.90
34572;DHT22;20808;48.974;8.452;2022-10-17T06:56:27;13.30;99.90
34572;DHT22;20808;48.974;8.452;2022-10-17T06:58:54;13.20;99.90
34572;DHT22;20808;48.974;8.452;2022-10-17T07:01:21;13.20;99.90
34572;DHT22;20808;48.974;8.452;2022-10-17T07:03:49;13.10;99.90
34572;DHT22;20808;48.974;8.452;2022-10-17T07:06:16;13.10;99.90
34572;DHT22;20808;48.974;8.452;2022-10-17T07:08:44;13.10;99.90
34572;DHT22;20808;48.974;8.452;2022-10-17T07:11:13;13.20;99.90
34572;DHT22;20808;48.974;8.452;2022-10-17T07:13:41;13.20;99.90
34572;DHT22;20808;48.974;8.452;2022-10-17T07:16:08;13.30;99.90
34572;DHT22;20808;48.974;8.452;2022-10-17T07:18:35;13.30;99.90
34572;DHT22;20808;48.974;8.452;2022-10-17T07:21:04;13.50;99.90
34572;DHT22;20808;48.974;8.452;2022-10-17T07:23:31;13.60;99.90
34572;DHT22;20808;48.974;8.452;2022-10-17T07:26:02;13.80;99.90
34572;DHT22;20808;48.974;8.452;2022-10-17T07:28:31;13.90;99.90
34572;DHT22;20808;48.974;8.452;2022-10-17T07:31:02;14.00;99.90
34572;DHT22;20808;48.974;8.452;2022-10-17T07:33:29;14.30;99.90
34572;DHT22;20808;48.974;8.452;2022-10-17T07:35:57;14.70;99.90
34572;DHT22;20808;48.974;8.452;2022-10-17T07:38:25;14.90;99.90
34572;DHT22;20808;48.974;8.452;2022-10-17T07:40:53;15.30;99.90
34572;DHT22;20808;48.974;8.452;2022-10-17T07:43:20;15.50;99.90
34572;DHT22;20808;48.974;8.452;2022-10-17T07:45:47;15.70;66.30
34572;DHT22;20808;48.974;8.452;2022-10-17T07:48:14;15.70;1.00
34572;DHT22;20808;48.974;8.452;2022-10-17T07:50:41;15.90;40.40
34572;DHT22;20808;48.974;8.452;2022-10-17T07:53:07;16.10;1.00
34572;DHT22;20808;48.974;8.452;2022-10-17T07:55:37;16.20;1.00
34572;DHT22;20808;48.974;8.452;2022-10-17T07:58:04;16.60;1.00
34572;DHT22;20808;48.974;8.452;2022-10-17T08:00:31;16.90;1.00
34572;DHT22;20808;48.974;8.452;2022-10-17T08:02:57;17.10;99.90
34572;DHT22;20808;48.974;8.452;2022-10-17T08:05:24;17.20;1.00
34572;DHT22;20808;48.974;8.452;2022-10-17T08:07:51;17.40;99.90
34572;DHT22;20808;48.974;8.452;2022-10-17T08:10:18;17.80;1.00
34572;DHT22;20808;48.974;8.452;2022-10-17T08:12:47;18.00;99.90
34572;DHT22;20808;48.974;8.452;2022-10-17T08:15:13;18.20;99.90
34572;DHT22;20808;48.974;8.452;2022-10-17T08:17:40;18.70;99.90
34572;DHT22;20808;48.974;8.452;2022-10-17T08:20:08;19.20;1.00
34572;DHT22;20808;48.974;8.452;2022-10-17T08:22:35;19.40;24.60
34572;DHT22;20808;48.974;8.452;2022-10-17T08:25:03;19.50;99.90
34572;DHT22;20808;48.974;8.452;2022-10-17T08:27:31;19.80;1.00
34572;DHT22;20808;48.974;8.452;2022-10-17T08:29:59;19.90;1.00
34572;DHT22;20808;48.974;8.452;2022-10-17T08:32:27;20.40;1.00
34572;DHT22;20808;48.974;8.452;2022-10-17T08:34:55;20.80;1.00
34572;DHT22;20808;48.974;8.452;2022-10-17T08:37:22;20.90;1.00
34572;DHT22;20808;48.974;8.452;2022-10-17T08:39:48;20.80;1.00
34572;DHT22;20808;48.974;8.452;2022-10-17T08:42:28;21.00;1.00
34572;DHT22;20808;48.974;8.452;2022-10-17T08:45:05;21.40;1.00
34572;DHT22;20808;48.974;8.452;2022-10-17T08:47:37;21.80;99.90
34572;DHT22;20808;48.974;8.452;2022-10-17T08:50:09;22.20;99.90
34572;DHT22;20808;48.974;8.452;2022-10-17T08:52:39;22.20;99.90
34572;DHT22;20808;48.974;8.452;2022-10-17T08:55:13;22.30;99.90
34572;DHT22;20808;48.974;8.452;2022-10-17T08:57:41;22.70;99.90
34572;DHT22;20808;48.974;8.452;2022-10-17T09:00:15;22.70;99.90
34572;DHT22;20808;48.974;8.452;2022-10-17T09:02:54;22.80;99.90
34572;DHT22;20808;48.974;8.452;2022-10-17T09:05:35;22.90;99.90
34572;DHT22;20808;48.974;8.452;2022-10-17T09:08:12;23.00;99.90
34572;DHT22;20808;48.974;8.452;2022-10-17T09:10:49;22.70;99.90
34572;DHT22;20808;48.974;8.452;2022-10-17T09:13:25;23.30;99.90
34572;DHT22;20808;48.974;8.452;2022-10-17T09:16:11;23.30;99.90
34572;DHT22;20808;48.974;8.452;2022-10-17T09:18:41;23.30;99.90
34572;DHT22;20808;48.974;8.452;2022-10-17T09:21:17;23.60;99.90
34572;DHT22;20808;48.974;8.452;2022-10-17T09:23:49;23.90;99.90
34572;DHT22;20808;48.974;8.452;2022-10-17T09:26:17;23.90;99.90
34572;DHT22;20808;48.974;8.452;2022-10-17T09:28:50;24.00;99.90
34572;DHT22;20808;48.974;8.452;2022-10-17T09:31:21;23.90;99.90
34572;DHT22;20808;48.974;8.452;2022-10-17T09:33:50;24.20;99.90
34572;DHT22;20808;48.974;8.452;2022-10-17T09:36:19;23.90;99.90
34572;DHT22;20808;48.974;8.452;2022-10-17T09:38:48;23.90;99.90
34572;DHT22;20808;48.974;8.452;2022-10-17T09:41:18;23.90;99.90
34572;DHT22;20808;48.974;8.452;2022-10-17T09:43:45;23.80;99.90
34572;DHT22;20808;48.974;8.452;2022-10-17T09:46:17;23.80;99.90
34572;DHT22;20808;48.974;8.452;2022-10-17T09:48:51;23.60;99.90
34572;DHT22;20808;48.974;8.452;2022-10-17T09:51:19;23.70;99.90
34572;DHT22;20808;48.974;8.452;2022-10-17T09:53:49;23.90;99.90
34572;DHT22;20808;48.974;8.452;2022-10-17T09:56:18;23.40;99.90
34572;DHT22;20808;48.974;8.452;2022-10-17T09:58:47;23.20;99.90
34572;DHT22;20808;48.974;8.452;2022-10-17T10:01:19;23.20;99.90
34572;DHT22;20808;48.974;8.452;2022-10-17T10:04:06;23.40;99.90
34572;DHT22;20808;48.974;8.452;2022-10-17T10:06:34;23.70;99.90
34572;DHT22;20808;48.974;8.452;2022-10-17T10:09:01;23.90;99.90
34572;DHT22;20808;48.974;8.452;2022-10-17T10:11:44;23.90;99.90
34572;DHT22;20808;48.974;8.452;2022-10-17T10:14:17;24.20;99.90
34572;DHT22;20808;48.974;8.452;2022-10-17T10:16:46;24.30;99.90
34572;DHT22;20808;48.974;8.452;2022-10-17T10:19:25;24.70;99.90
34572;DHT22;20808;48.974;8.452;2022-10-17T10:21:55;25.00;99.90
34572;DHT22;20808;48.974;8.452;2022-10-17T10:24:22;25.00;99.90
34572;DHT22;20808;48.974;8.452;2022-10-17T10:26:50;25.10;99.90
34572;DHT22;20808;48.974;8.452;2022-10-17T10:29:22;25.70;93.90
34572;DHT22;20808;48.974;8.452;2022-10-17T10:31:52;25.50;78.60
34572;DHT22;20808;48.974;8.452;2022-10-17T10:34:22;25.20;56.00
34572;DHT22;20808;48.974;8.452;2022-10-17T10:36:55;25.00;59.30
34572;DHT22;20808;48.974;8.452;2022-10-17T10:39:44;25.30;56.90
34572;DHT22;20808;48.974;8.452;2022-10-17T10:42:24;25.70;49.30
34572;DHT22;20808;48.974;8.452;2022-10-17T10:44:54;26.10;37.30
34572;DHT22;20808;48.974;8.452;2022-10-17T10:47:23;26.60;27.80
34572;DHT22;20808;48.974;8.452;2022-10-17T10:50:05;27.20;16.60
34572;DHT22;20808;48.974;8.452;2022-10-17T10:52:37;27.10;8.70
34572;DHT22;20808;48.974;8.452;2022-10-17T10:55:20;26.90;5.30
34572;DHT22;20808;48.974;8.452;2022-10-17T10:57:52;27.10;3.90
34572;DHT22;20808;48.974;8.452;2022-10-17T11:00:23;27.40;1.10
34572;DHT22;20808;48.974;8.452;2022-10-17T11:02:57;27.00;1.00
34572;DHT22;20808;48.974;8.452;2022-10-17T11:05:37;27.10;1.00
34572;DHT22;20808;48.974;8.452;2022-10-17T11:08:11;27.90;1.00
34572;DHT22;20808;48.974;8.452;2022-10-17T11:10:43;28.40;1.00
34572;DHT22;20808;48.974;8.452;2022-10-17T11:13:17;28.70;1.00
34572;DHT22;20808;48.974;8.452;2022-10-17T11:15:48;28.70;1.00
34572;DHT22;20808;48.974;8.452;2022-10-17T11:18:23;29.40;1.00
34572;DHT22;20808;48.974;8.452;2022-10-17T11:20:55;29.70;1.00
34572;DHT22;20808;48.974;8.452;2022-10-17T11:23:27;29.70;1.00
34572;DHT22;20808;48.974;8.452;2022-10-17T11:25:58;29.20;1.00
34572;DHT22;20808;48.974;8.452;2022-10-17T11:28:29;29.00;1.00
34572;DHT22;20808;48.974;8.452;2022-10-17T11:30:59;29.00;1.00
34572;DHT22;20808;48.974;8.452;2022-10-17T11:33:29;29.50;1.00
34572;DHT22;20808;48.974;8.452;2022-10-17T11:36:04;30.50;1.00
34572;DHT22;20808;48.974;8.452;2022-10-17T11:38:45;30.90;1.00
34572;DHT22;20808;48.974;8.452;2022-10-17T11:41:18;30.30;1.00
34572;DHT22;20808;48.974;8.452;2022-10-17T11:43:50;29.00;1.00
34572;DHT22;20808;48.974;8.452;2022-10-17T11:46:20;29.00;1.00
34572;DHT22;20808;48.974;8.452;2022-10-17T11:48:56;28.90;1.00
34572;DHT22;20808;48.974;8.452;2022-10-17T11:51:25;29.60;1.00
34572;DHT22;20808;48.974;8.452;2022-10-17T11:53:58;30.40;1.00
34572;DHT22;20808;48.974;8.452;2022-10-17T11:56:32;31.00;1.00
34572;DHT22;20808;48.974;8.452;2022-10-17T11:59:13;30.30;1.00
34572;DHT22;20808;48.974;8.452;2022-10-17T12:01:47;29.90;1.00
34572;DHT22;20808;48.974;8.452;2022-10-17T12:04:21;30.20;1.00
34572;DHT22;20808;48.974;8.452;2022-10-17T12:07:07;30.40;1.00
34572;DHT22;20808;48.974;8.452;2022-10-17T12:09:41;31.00;1.00
34572;DHT22;20808;48.974;8.452;2022-10-17T12:12:23;31.00;1.00
34572;DHT22;20808;48.974;8.452;2022-10-17T12:14:50;31.50;1.00
34572;DHT22;20808;48.974;8.452;2022-10-17T12:17:38;32.00;1.00
34572;DHT22;20808;48.974;8.452;2022-10-17T12:20:31;31.40;1.00
34572;DHT22;20808;48.974;8.452;2022-10-17T12:23:04;31.50;1.00
34572;DHT22;20808;48.974;8.452;2022-10-17T12:25:33;31.40;1.00
34572;DHT22;20808;48.974;8.452;2022-10-17T12:28:15;31.90;1.00
34572;DHT22;20808;48.974;8.452;2022-10-17T12:30:57;32.40;1.00
34572;DHT22;20808;48.974;8.452;2022-10-17T12:33:31;32.20;1.00
34572;DHT22;20808;48.974;8.452;2022-10-17T12:36:35;32.50;1.00
34572;DHT22;20808;48.974;8.452;2022-10-17T12:42:46;32.10;1.00
34572;DHT22;20808;48.974;8.452;2022-10-17T12:45:45;31.80;1.00
34572;DHT22;20808;48.974;8.452;2022-10-17T12:48:12;31.10;1.00
34572;DHT22;20808;48.974;8.452;2022-10-17T12:51:03;31.30;1.00
34572;DHT22;20808;48.974;8.452;2022-10-17T12:53:37;30.60;1.00
34572;DHT22;20808;48.974;8.452;2022-10-17T12:56:06;30.30;1.00
34572;DHT22;20808;48.974;8.452;2022-10-17T12:58:33;30.50;1.00
34572;DHT22;20808;48.974;8.452;2022-10-17T13:01:02;30.60;1.00
34572;DHT22;20808;48.974;8.452;2022-10-17T13:03:31;30.40;1.00
34572;DHT22;20808;48.974;8.452;2022-10-17T13:06:03;30.10;1.00
34572;DHT22;20808;48.974;8.452;2022-10-17T13:08:33;30.50;1.00
34572;DHT22;20808;48.974;8.452;2022-10-17T13:11:01;30.90;1.00
34572;DHT22;20808;48.974;8.452;2022-10-17T13:13:36;31.20;1.00
34572;DHT22;20808;48.974;8.452;2022-10-17T13:16:05;31.60;1.00
34572;DHT22;20808;48.974;8.452;2022-10-17T13:18:32;31.80;1.00
34572;DHT22;20808;48.974;8.452;2022-10-17T13:21:01;31.60;1.00
34572;DHT22;20808;48.974;8.452;2022-10-17T13:23:33;31.60;1.00
34572;DHT22;20808;48.974;8.452;2022-10-17T13:26:12;31.80;1.00
34572;DHT22;20808;48.974;8.452;2022-10-17T13:28:39;30.70;1.00
34572;DHT22;20808;48.974;8.452;2022-10-17T13:31:06;30.10;1.00
34572;DHT22;20808;48.974;8.452;2022-10-17T13:33:35;29.60;1.00
34572;DHT22;20808;48.974;8.452;2022-10-17T13:36:06;29.40;1.00
34572;DHT22;20808;48.974;8.452;2022-10-17T13:38:35;29.80;1.00
34572;DHT22;20808;48.974;8.452;2022-10-17T13:41:02;29.50;1.00
34572;DHT22;20808;48.974;8.452;2022-10-17T13:43:30;29.80;1.00
34572;DHT22;20808;48.974;8.452;2022-10-17T13:46:00;30.10;1.00
34572;DHT22;20808;48.974;8.452;2022-10-17T13:48:31;30.00;1.00
34572;DHT22;20808;48.974;8.452;2022-10-17T13:50:59;30.20;1.00
34572;DHT22;20808;48.974;8.452;2022-10-17T13:53:30;30.50;1.00
34572;DHT22;20808;48.974;8.452;2022-10-17T13:56:00;30.80;1.00
34572;DHT22;20808;48.974;8.452;2022-10-17T13:58:30;30.90;1.00
34572;DHT22;20808;48.974;8.452;2022-10-17T14:00:59;31.20;1.00
34572;DHT22;20808;48.974;8.452;2022-10-17T14:03:26;31.80;1.00
34572;DHT22;20808;48.974;8.452;2022-10-17T14:06:15;31.90;1.00
34572;DHT22;20808;48.974;8.452;2022-10-17T14:08:52;31.90;1.00
34572;DHT22;20808;48.974;8.452;2022-10-17T14:11:29;31.60;1.00
34572;DHT22;20808;48.974;8.452;2022-10-17T14:13:58;32.10;1.00
34572;DHT22;20808;48.974;8.452;2022-10-17T14:16:31;31.60;1.00
34572;DHT22;20808;48.974;8.452;2022-10-17T14:18:59;31.50;1.00
34572;DHT22;20808;48.974;8.452;2022-10-17T14:21:26;31.50;1.00
34572;DHT22;20808;48.974;8.452;2022-10-17T14:24:13;30.70;1.00
34572;DHT22;20808;48.974;8.452;2022-10-17T14:26:48;30.50;1.00
34572;DHT22;20808;48.974;8.452;2022-10-17T14:29:24;30.10;1.00
34572;DHT22;20808;48.974;8.452;2022-10-17T14:31:58;29.40;1.00
34572;DHT22;20808;48.974;8.452;2022-10-17T14:34:30;28.60;1.00
34572;DHT22;20808;48.974;8.452;2022-10-17T14:36:58;28.00;1.00
34572;DHT22;20808;48.974;8.452;2022-10-17T14:39:26;27.60;1.00
34572;DHT22;20808;48.974;8.452;2022-10-17T14:41:55;27.40;1.00
34572;DHT22;20808;48.974;8.452;2022-10-17T14:44:24;27.10;1.00
34572;DHT22;20808;48.974;8.452;2022-10-17T14:46:54;27.00;1.00
34572;DHT22;20808;48.974;8.452;2022-10-17T14:49:40;26.70;1.00
34572;DHT22;20808;48.974;8.452;2022-10-17T14:52:11;26.50;1.00
34572;DHT22;20808;48.974;8.452;2022-10-17T14:54:38;26.30;1.00
34572;DHT22;20808;48.974;8.452;2022-10-17T14:57:15;26.10;1.00
34572;DHT22;20808;48.974;8.452;2022-10-17T14:59:43;25.70;1.00
34572;DHT22;20808;48.974;8.452;2022-10-17T15:02:09;25.40;1.00
34572;DHT22;20808;48.974;8.452;2022-10-17T15:04:36;25.10;1.00
34572;DHT22;20808;48.974;8.452;2022-10-17T15:07:03;25.00;1.00
34572;DHT22;20808;48.974;8.452;2022-10-17T15:09:30;24.90;1.00
34572;DHT22;20808;48.974;8.452;2022-10-17T15:11:59;24.90;1.00
34572;DHT22;20808;48.974;8.452;2022-10-17T15:14:27;24.70;1.00
34572;DHT22;20808;48.974;8.452;2022-10-17T15:16:54;24.60;1.00
34572;DHT22;20808;48.974;8.452;2022-10-17T15:19:21;24.40;1.00
34572;DHT22;20808;48.974;8.452;2022-10-17T15:21:48;24.30;1.00
34572;DHT22;20808;48.974;8.452;2022-10-17T15:24:14;24.00;1.00
34572;DHT22;20808;48.974;8.452;2022-10-17T15:26:41;23.90;1.00
34572;DHT22;20808;48.974;8.452;2022-10-17T15:29:09;23.80;14.50
34572;DHT22;20808;48.974;8.452;2022-10-17T15:31:40;23.60;36.60
34572;DHT22;20808;48.974;8.452;2022-10-17T15:34:07;23.40;78.80
34572;DHT22;20808;48.974;8.452;2022-10-17T15:36:38;23.20;99.90
34572;DHT22;20808;48.974;8.452;2022-10-17T15:39:05;23.00;99.90
34572;DHT22;20808;48.974;8.452;2022-10-17T15:41:32;22.80;99.90
34572;DHT22;20808;48.974;8.452;2022-10-17T15:43:59;22.60;99.90
34572;DHT22;20808;48.974;8.452;2022-10-17T15:46:31;22.40;99.90
34572;DHT22;20808;48.974;8.452;2022-10-17T15:49:03;22.20;99.90
34572;DHT22;20808;48.974;8.452;2022-10-17T15:51:30;22.00;1.00
34572;DHT22;20808;48.974;8.452;2022-10-17T15:53:57;21.80;1.00
34572;DHT22;20808;48.974;8.452;2022-10-17T15:56:28;21.60;1.00
34572;DHT22;20808;48.974;8.452;2022-10-17T15:58:56;21.50;1.00
34572;DHT22;20808;48.974;8.452;2022-10-17T16:01:26;21.30;92.80